Time;durP1;ratioP1;P1;durP2;ratioP2;P2;SDS_P1;SDS_P2;PMS_P1;PMS_P2;Temp;Humidity;BMP_temperature;BMP_pressure;BME280_temperature;BME280_humidity;BME280_pressure;Samples;Min_cycle;Max_cycle;Signal;HPM_P1;HPM_P2
2023/12/24 00:01:49;;;;;;;6.50;2.00;;;;;;;0.54;97.79;98909.41;134190;1298;22372;-75
2023/12/24 00:04:54;;;;;;;8.10;3.00;;;;;;;0.52;97.56;98913.60;134230;1298;22388;-76
2023/12/24 00:07:56;;;;;;;6.90;2.10;;;;;;;0.50;97.66;98915.02;134243;1298;23221;-76
2023/12/24 00:10:57;;;;;;;3.70;2.30;;;;;;;0.47;97.74;98911.04;134263;1304;22417;-76
2023/12/24 00:14:01;;;;;;;5.30;2.30;;;;;;;0.46;97.69;98915.20;134259;1298;22348;-75
2023/12/24 00:17:19;;;;;;;;;;;;;;;;;;;;;
2023/12/24 00:20:22;;;;;;;8.60;2.90;;;;;;;0.40;97.75;98926.91;134268;1301;23233;-76
2023/12/24 00:23:23;;;;;;;6.60;2.80;;;;;;;0.38;97.62;98933.36;134242;1301;22329;-76
2023/12/24 00:26:23;;;;;;;6.90;2.40;;;;;;;0.38;97.77;98939.45;134232;1298;23264;-76
2023/12/24 00:29:24;;;;;;;4.60;2.60;;;;;;;0.38;97.80;98938.73;134232;1304;22392;-77
2023/12/24 00:32:26;;;;;;;3.90;2.30;;;;;;;0.37;97.77;98948.44;134065;1301;22750;-77
2023/12/24 00:35:35;;;;;;;8.00;2.50;;;;;;;0.36;97.83;98948.51;134076;1304;23098;-77
2023/12/24 00:38:36;;;;;;;8.50;2.50;;;;;;;0.33;97.98;98959.20;134244;1304;22518;-77
2023/12/24 00:41:43;;;;;;;7.50;2.10;;;;;;;0.30;97.76;98961.75;134255;1298;22146;-77
2023/12/24 00:44:47;;;;;;;8.00;2.30;;;;;;;0.25;98.08;98962.55;134240;1298;22470;-77
2023/12/24 00:47:51;;;;;;;7.30;2.30;;;;;;;0.18;97.90;98969.00;134093;1298;22394;-77
2023/12/24 00:50:51;;;;;;;;;;;;;;;0.12;98.18;98972.46;134219;1298;23309;-77
2023/12/24 00:53:52;;;;;;;3.20;1.70;;;;;;;0.05;98.37;98977.20;134201;1294;22291;-77
2023/12/24 00:56:54;;;;;;;5.60;1.80;;;;;;;-0.02;98.42;98975.00;134034;1298;22241;-78
2023/12/24 00:59:55;;;;;;;3.80;1.60;;;;;;;-0.08;98.54;98981.79;134114;1304;22364;-78
2023/12/24 01:02:56;;;;;;;5.20;2.00;;;;;;;-0.14;98.49;98983.13;134044;1303;22381;-78
2023/12/24 01:05:57;;;;;;;2.70;1.60;;;;;;;-0.19;98.85;98981.63;134152;1304;23212;-78
2023/12/24 01:09:03;;;;;;;;;;;;;;;-0.26;99.25;98986.16;134031;1305;23209;-77
2023/12/24 01:12:16;;;;;;;;;;;;;;;;;;;;;
2023/12/24 01:15:18;;;;;;;4.80;1.60;;;;;;;-0.32;99.33;98991.59;133890;1301;22387;-77
2023/12/24 01:18:22;;;;;;;7.00;2.10;;;;;;;-0.35;99.67;98993.77;134107;1286;22313;-77
2023/12/24 01:21:23;;;;;;;5.70;2.00;;;;;;;-0.38;99.62;98999.51;134122;1298;22203;-77
2023/12/24 01:24:23;;;;;;;5.60;2.50;;;;;;;-0.40;99.76;99006.80;134131;1305;22493;-77
2023/12/24 01:27:24;;;;;;;7.30;2.50;;;;;;;-0.41;99.69;99008.67;133994;1305;22391;-77
2023/12/24 01:30:25;;;;;;;3.30;2.20;;;;;;;-0.44;99.80;99008.55;134096;1305;22385;-78
2023/12/24 01:33:46;;;;;;;;;;;;;;;-0.47;100.00;99009.45;134066;1302;22504;-77
2023/12/24 01:36:50;;;;;;;5.60;2.00;;;;;;;-0.49;99.91;99013.58;133889;1305;22538;-77
2023/12/24 01:40:20;;;;;;;3.00;1.90;;;;;;;-0.50;99.98;99013.64;134144;1305;22283;-77
2023/12/24 01:44:04;;;;;;;3.20;2.00;;;;;;;-0.51;100.00;99021.24;134070;1305;22389;-77
2023/12/24 01:47:08;;;;;;;4.50;2.20;;;;;;;-0.54;100.00;99018.00;134075;1304;22271;-77
2023/12/24 01:50:12;;;;;;;;;;;;;;;-0.56;100.00;99020.56;134070;1305;22484;-77
2023/12/24 01:53:17;;;;;;;2.90;1.80;;;;;;;-0.55;100.00;99021.94;134160;1299;22290;-77
2023/12/24 01:56:21;;;;;;;3.90;2.00;;;;;;;-0.55;100.00;99026.27;134106;1305;23160;-77
2023/12/24 01:59:23;;;;;;;6.10;1.90;;;;;;;-0.54;100.00;99020.82;134033;1298;22237;-77
2023/12/24 02:02:31;;;;;;;4.30;1.80;;;;;;;-0.55;100.00;99017.21;134049;1305;22383;-77
2023/12/24 02:05:32;;;;;;;4.20;2.40;;;;;;;-0.55;100.00;99018.23;133896;1304;22264;-77
2023/12/24 02:08:44;;;;;;;;;;;;;;;;;;;;;
2023/12/24 02:11:59;;;;;;;3.80;2.10;;;;;;;-0.55;100.00;99017.41;134236;1298;22394;-77
2023/12/24 02:15:12;;;;;;;6.60;2.50;;;;;;;-0.55;100.00;99020.70;134198;1304;22344;-77
2023/12/24 02:18:24;;;;;;;3.90;2.30;;;;;;;-0.56;100.00;99024.96;134232;1302;22361;-78
2023/12/24 02:21:25;;;;;;;;;;;;;;;-0.57;100.00;99026.71;134220;1301;22472;-77
2023/12/24 02:24:26;;;;;;;3.70;2.10;;;;;;;-0.57;100.00;99027.84;134244;1298;22250;-77
2023/12/24 02:27:51;;;;;;;3.70;2.40;;;;;;;-0.58;100.00;99023.00;134228;1299;22470;-77
2023/12/24 02:30:56;;;;;;;3.90;2.00;;;;;;;-0.58;100.00;99020.04;134199;1298;22448;-78
2023/12/24 02:34:00;;;;;;;4.40;1.70;;;;;;;-0.58;100.00;99021.30;133974;1297;22505;-78
2023/12/24 02:37:18;;;;;;;;;;;;;;;;;;;;;
2023/12/24 02:40:59;;;;;;;;;;;;;;;;;;;;;
2023/12/24 02:44:15;;;;;;;2.80;2.20;;;;;;;-0.59;100.00;99011.98;134234;1298;23191;-77
2023/12/24 02:47:23;;;;;;;5.60;2.10;;;;;;;-0.59;100.00;99007.26;134165;1305;22416;-77
2023/12/24 02:50:24;;;;;;;1.80;1.70;;;;;;;-0.58;100.00;99007.59;134252;1299;22549;-76
2023/12/24 02:53:25;;;;;;;2.30;1.80;;;;;;;-0.58;100.00;99005.67;134282;1299;22236;-76
2023/12/24 02:56:25;;;;;;;;;;;;;;;-0.58;100.00;99005.09;134271;1305;22445;-77
2023/12/24 02:59:28;;;;;;;2.40;1.60;;;;;;;-0.58;100.00;99006.02;134248;1305;22195;-76
2023/12/24 03:02:29;;;;;;;3.40;1.70;;;;;;;-0.59;100.00;99005.52;134126;1297;22373;-76
2023/12/24 03:05:35;;;;;;;2.40;2.20;;;;;;;-0.59;100.00;98998.95;134254;1305;22354;-76
2023/12/24 03:09:04;;;;;;;3.10;2.10;;;;;;;-0.59;100.00;99007.47;134137;1299;22809;-76
2023/12/24 03:12:31;;;;;;;;;;;;;;;;;;;;;
2023/12/24 03:15:45;;;;;;;;;;;;;;;;;;;;;
2023/12/24 03:18:54;;;;;;;4.90;2.30;;;;;;;-0.57;100.00;99010.60;134075;1305;22430;-76
2023/12/24 03:21:55;;;;;;;2.40;2.20;;;;;;;-0.57;100.00;99007.34;133851;1304;22433;-76
2023/12/24 03:24:56;;;;;;;2.80;2.50;;;;;;;-0.57;100.00;99006.44;133887;1305;22167;-76
2023/12/24 03:27:57;;;;;;;3.20;2.70;;;;;;;-0.57;100.00;99010.41;134105;1299;23135;-76
2023/12/24 03:30:57;;;;;;;3.50;2.80;;;;;;;-0.56;100.00;99013.17;134078;1298;22542;-76
2023/12/24 03:34:01;;;;;;;3.50;3.00;;;;;;;-0.56;100.00;99020.44;134121;1305;22548;-76
2023/12/24 03:37:06;;;;;;;7.60;3.00;;;;;;;-0.56;100.00;99016.93;134114;1305;22386;-77
2023/12/24 03:40:08;;;;;;;4.00;2.50;;;;;;;-0.55;100.00;99022.42;134134;1304;22353;-76
2023/12/24 03:43:32;;;;;;;2.90;2.20;;;;;;;-0.55;100.00;99022.75;134011;1301;22264;-76
2023/12/24 03:46:33;;;;;;;3.40;2.40;;;;;;;-0.54;100.00;99023.18;133978;1304;22526;-76
2023/12/24 03:49:34;;;;;;;3.70;2.50;;;;;;;-0.53;100.00;99021.95;133896;1298;22462;-76
2023/12/24 03:52:38;;;;;;;3.80;2.60;;;;;;;-0.53;100.00;99021.55;133860;1302;22407;-76
2023/12/24 03:55:39;;;;;;;6.40;2.80;;;;;;;-0.52;100.00;99021.84;134081;1301;22195;-76
2023/12/24 03:58:46;;;;;;;4.70;2.10;;;;;;;-0.52;100.00;99011.27;134095;1305;22539;-76
2023/12/24 04:01:46;;;;;;;2.80;2.10;;;;;;;-0.51;100.00;99013.96;134121;1299;22281;-76
2023/12/24 04:04:47;;;;;;;2.70;2.30;;;;;;;-0.52;100.00;99017.45;134100;1304;22318;-76
2023/12/24 04:07:49;;;;;;;3.90;2.10;;;;;;;-0.51;100.00;99022.96;133989;1301;22374;-76
2023/12/24 04:10:50;;;;;;;3.20;2.40;;;;;;;-0.50;100.00;99024.45;134117;1304;22164;-76
2023/12/24 04:13:51;;;;;;;4.30;2.70;;;;;;;-0.51;100.00;99029.19;134145;1298;22353;-76
2023/12/24 04:16:54;;;;;;;;;;;;;;;-0.51;100.00;99035.11;134137;1304;22446;-76
2023/12/24 04:20:26;;;;;;;3.80;2.20;;;;;;;-0.52;100.00;99034.50;134044;1298;22484;-77
2023/12/24 04:23:30;;;;;;;5.50;2.30;;;;;;;-0.52;100.00;99029.46;133789;1301;23172;-76
2023/12/24 04:26:35;;;;;;;2.90;2.10;;;;;;;-0.52;100.00;99026.57;134015;1302;22391;-76
2023/12/24 04:29:37;;;;;;;4.90;2.60;;;;;;;-0.53;100.00;99022.66;133876;1298;22440;-76
2023/12/24 04:32:38;;;;;;;3.90;2.40;;;;;;;-0.54;100.00;99021.26;133852;1301;22252;-76
2023/12/24 04:35:38;;;;;;;4.40;2.60;;;;;;;-0.54;100.00;99023.55;134025;1305;22371;-76
2023/12/24 04:38:42;;;;;;;6.20;3.00;;;;;;;-0.54;100.00;99022.15;134051;1304;22400;-76
2023/12/24 04:41:43;;;;;;;7.70;3.20;;;;;;;-0.54;100.00;99022.00;134094;1305;22548;-77
2023/12/24 04:44:44;;;;;;;4.10;2.70;;;;;;;-0.54;100.00;99021.27;133939;1305;23039;-76
2023/12/24 04:47:48;;;;;;;3.10;2.30;;;;;;;-0.53;100.00;99019.98;134050;1301;22366;-76
2023/12/24 04:51:10;;;;;;;2.90;2.30;;;;;;;-0.53;100.00;99014.98;134125;1305;22436;-77
2023/12/24 04:54:14;;;;;;;6.00;2.20;;;;;;;-0.53;100.00;99017.90;133902;1302;23234;-76
2023/12/24 04:57:24;;;;;;;2.70;2.30;;;;;;;-0.54;100.00;99019.69;133891;1305;22478;-76
2023/12/24 05:00:26;;;;;;;3.80;2.70;;;;;;;-0.54;100.00;99019.89;133885;1292;22471;-77
2023/12/24 05:03:27;;;;;;;2.60;2.00;;;;;;;-0.53;100.00;99021.58;134093;1294;22424;-77
2023/12/24 05:06:28;;;;;;;4.70;2.80;;;;;;;-0.53;100.00;99016.70;133976;1301;22258;-76
2023/12/24 05:09:29;;;;;;;3.80;2.50;;;;;;;-0.53;100.00;99019.10;134279;1298;22426;-77
2023/12/24 05:12:30;;;;;;;;;;;;;;;-0.52;100.00;99019.25;134292;1305;23540;-76
2023/12/24 05:15:31;;;;;;;4.20;2.60;;;;;;;-0.53;100.00;99016.01;134196;1301;22286;-76
2023/12/24 05:18:34;;;;;;;5.70;2.80;;;;;;;-0.53;100.00;99013.21;134125;1298;183047;-77
2023/12/24 05:21:34;;;;;;;3.50;2.70;;;;;;;-0.53;100.00;99018.61;134136;1298;22134;-76
2023/12/24 05:24:35;;;;;;;;;;;;;;;-0.53;100.00;99015.46;134073;1301;22533;-77
2023/12/24 05:27:38;;;;;;;3.40;3.10;;;;;;;-0.52;100.00;99015.75;134273;1298;22562;-77
2023/12/24 05:30:39;;;;;;;4.40;2.90;;;;;;;-0.51;100.00;99009.60;134264;1298;22297;-77
2023/12/24 05:33:39;;;;;;;;;;;;;;;-0.51;100.00;99001.75;134272;1304;23412;-77
2023/12/24 05:36:47;;;;;;;8.80;2.90;;;;;;;-0.50;100.00;98997.71;134279;1299;22449;-77
2023/12/24 05:39:48;;;;;;;5.20;3.00;;;;;;;-0.50;100.00;98993.67;134227;1301;22295;-77
2023/12/24 05:42:54;;;;;;;5.10;3.30;;;;;;;-0.49;100.00;98996.42;134257;1304;23159;-77
2023/12/24 05:46:22;;;;;;;3.70;2.90;;;;;;;-0.48;100.00;99000.30;134230;1304;22264;-77
2023/12/24 05:49:27;;;;;;;3.30;2.40;;;;;;;-0.47;100.00;98997.08;134258;1304;23052;-77
2023/12/24 05:52:52;;;;;;;5.10;2.40;;;;;;;-0.45;100.00;98999.73;134245;1299;22369;-76
2023/12/24 05:55:53;;;;;;;2.20;1.90;;;;;;;-0.43;100.00;98991.26;134264;1298;23178;-77
2023/12/24 05:59:01;;;;;;;2.00;1.80;;;;;;;-0.41;100.00;98994.08;134238;1298;23253;-76
2023/12/24 06:02:25;;;;;;;3.50;2.10;;;;;;;-0.40;100.00;98991.34;134266;1298;22422;-77
2023/12/24 06:05:26;;;;;;;3.60;2.40;;;;;;;-0.38;100.00;98991.90;134248;1298;23272;-76
2023/12/24 06:08:32;;;;;;;1.70;1.60;;;;;;;-0.36;100.00;98993.43;134237;1304;22380;-76
2023/12/24 06:11:33;;;;;;;3.00;1.70;;;;;;;-0.34;100.00;98993.28;134232;1301;25526;-76
2023/12/24 06:14:46;;;;;;;1.70;1.60;;;;;;;-0.34;100.00;98990.00;134247;1301;23544;-82
2023/12/24 06:17:47;;;;;;;1.90;1.40;;;;;;;-0.34;100.00;98995.06;134224;1298;22440;-78
2023/12/24 06:20:47;;;;;;;;;;;;;;;-0.36;100.00;98996.73;134227;1298;22452;-77
2023/12/24 06:23:52;;;;;;;5.50;1.40;;;;;;;-0.38;100.00;98993.11;134256;1301;22384;-78
2023/12/24 06:26:55;;;;;;;1.40;1.30;;;;;;;-0.40;100.00;98994.64;134234;1297;25522;-78
2023/12/24 06:29:59;;;;;;;3.40;1.60;;;;;;;-0.41;100.00;98989.73;134229;1304;22262;-78
2023/12/24 06:33:00;;;;;;;8.30;2.10;;;;;;;-0.43;100.00;98990.73;134235;1297;22449;-78
2023/12/24 06:36:11;;;;;;;7.90;3.00;;;;;;;-0.44;100.00;98988.86;134246;1298;22376;-78
2023/12/24 06:39:12;;;;;;;;;;;;;;;-0.44;100.00;98989.77;134265;1304;22449;-78
2023/12/24 06:42:13;;;;;;;14.50;4.80;;;;;;;-0.45;100.00;98990.88;134245;1301;22455;-79
2023/12/24 06:45:14;;;;;;;;;;;;;;;-0.47;100.00;98986.52;134257;1298;22520;-77
2023/12/24 06:48:14;;;;;;;3.80;3.40;;;;;;;-0.49;100.00;98986.52;134231;1299;22470;-77
2023/12/24 06:51:15;;;;;;;4.10;3.60;;;;;;;-0.51;100.00;98986.69;134245;1298;22415;-76
2023/12/24 06:54:19;;;;;;;;;;;;;;;-0.53;100.00;98983.36;134258;1298;22465;-76
2023/12/24 06:57:22;;;;;;;6.90;4.10;;;;;;;-0.54;100.00;98996.10;134234;1298;22220;-77
2023/12/24 07:00:25;;;;;;;4.80;3.50;;;;;;;-0.54;100.00;98990.70;134236;1298;23135;-76
2023/12/24 07:03:29;;;;;;;5.00;3.30;;;;;;;-0.55;100.00;98991.64;134093;1305;22236;-76
2023/12/24 07:06:51;;;;;;;5.10;3.70;;;;;;;-0.55;100.00;98992.41;134261;1301;22467;-76
2023/12/24 07:10:13;;;;;;;6.20;3.70;;;;;;;-0.56;100.00;98983.55;134297;1298;22379;-79
2023/12/24 07:13:16;;;;;;;6.40;4.40;;;;;;;-0.57;100.00;98977.06;134247;1304;22262;-76
2023/12/24 07:16:17;;;;;;;6.80;4.10;;;;;;;-0.57;100.00;98979.20;134306;1301;22228;-76
2023/12/24 07:19:17;;;;;;;;;;;;;;;-0.57;100.00;98977.64;134313;1298;22492;-76
2023/12/24 07:22:48;;;;;;;;;;;;;;;;;;;;;
2023/12/24 07:26:36;;;;;;;5.50;3.20;;;;;;;-0.60;100.00;98973.52;134267;1298;23281;-76
2023/12/24 07:29:37;;;;;;;3.80;2.80;;;;;;;-0.61;100.00;98970.97;134254;1301;22371;-76
2023/12/24 07:32:42;;;;;;;;;;;;;;;-0.60;100.00;98974.02;134272;1298;22458;-76
2023/12/24 07:35:42;;;;;;;5.30;2.90;;;;;;;-0.59;100.00;98973.09;134245;1294;22358;-75
2023/12/24 07:38:43;;;;;;;4.10;2.30;;;;;;;-0.59;100.00;98977.44;134241;1294;22375;-76
2023/12/24 07:41:47;;;;;;;;;;;;;;;-0.59;100.00;98992.14;134251;1301;23268;-76
2023/12/24 07:44:48;;;;;;;5.20;3.20;;;;;;;-0.55;100.00;98992.20;134278;1298;22291;-77
2023/12/24 07:47:49;;;;;;;3.50;2.50;;;;;;;-0.54;100.00;98951.66;134260;1298;22263;-77
2023/12/24 07:50:50;;;;;;;4.60;2.00;;;;;;;-0.57;100.00;98957.05;134226;1298;22406;-76
2023/12/24 07:53:51;;;;;;;5.90;3.80;;;;;;;-0.57;100.00;99052.48;134303;1297;22386;-77
2023/12/24 07:56:51;;;;;;;3.60;2.50;;;;;;;-0.59;100.00;99005.02;134261;1297;22458;-76
2023/12/24 07:59:52;;;;;;;3.30;2.30;;;;;;;-0.60;100.00;98958.93;134246;1298;22229;-76
2023/12/24 08:02:53;;;;;;;5.20;1.70;;;;;;;-0.59;100.00;98986.60;134270;1298;22278;-77
2023/12/24 08:05:54;;;;;;;2.80;1.30;;;;;;;-0.56;100.00;98980.70;134266;1285;22463;-78
2023/12/24 08:08:56;;;;;;;;;;;;;;;-0.53;100.00;98954.71;134126;1298;22486;-76
2023/12/24 08:11:57;;;;;;;2.10;1.90;;;;;;;-0.52;100.00;98962.39;134125;1301;22350;-76
2023/12/24 08:14:58;;;;;;;;;;;;;;;-0.50;100.00;98963.85;134252;1298;22471;-74
2023/12/24 08:17:58;;;;;;;3.50;1.60;;;;;;;-0.46;100.00;98953.98;134166;1297;22491;-78
2023/12/24 08:20:59;;;;;;;;;;;;;;;-0.43;100.00;98956.36;134199;1298;22465;-78
2023/12/24 08:24:00;;;;;;;3.00;1.50;;;;;;;-0.43;100.00;98948.48;134126;1298;22414;-77
2023/12/24 08:27:01;;;;;;;3.40;1.90;;;;;;;-0.42;100.00;98945.10;134196;1301;22452;-77
2023/12/24 08:30:10;;;;;;;6.30;2.50;;;;;;;-0.41;100.00;98937.92;134147;1298;22248;-77
2023/12/24 08:33:11;;;;;;;4.60;2.30;;;;;;;-0.40;100.00;98934.01;134198;1298;22382;-85
2023/12/24 08:36:12;;;;;;;;;;;;;;;-0.37;100.00;98939.84;134222;1298;22440;-78
2023/12/24 08:39:13;;;;;;;4.20;2.20;;;;;;;-0.36;100.00;98932.45;134146;1298;22230;-78
2023/12/24 08:42:14;;;;;;;2.70;2.00;;;;;;;-0.36;100.00;98930.05;134079;1298;22425;-79
2023/12/24 08:45:25;;;;;;;;;;;;;;;;;;;;;
2023/12/24 08:48:35;;;;;;;4.20;2.30;;;;;;;-0.35;100.00;98925.61;134133;1298;22389;-80
2023/12/24 08:51:36;;;;;;;5.40;3.60;;;;;;;-0.34;100.00;98921.34;134172;1297;23063;-79
2023/12/24 08:54:41;;;;;;;6.70;4.00;;;;;;;-0.32;100.00;98916.69;134157;1298;22313;-78
2023/12/24 08:57:42;;;;;;;6.00;3.50;;;;;;;-0.32;100.00;98908.81;134191;1298;23093;-79
2023/12/24 09:00:43;;;;;;;;;;;;;;;-0.30;100.00;98908.15;134180;1297;22493;-78
2023/12/24 09:03:44;;;;;;;8.40;5.40;;;;;;;-0.30;100.00;98900.52;134105;1298;22276;-80
2023/12/24 09:06:47;;;;;;;4.90;2.90;;;;;;;-0.30;100.00;98896.67;134162;1298;23383;-80
2023/12/24 09:09:57;;;;;;;4.20;3.40;;;;;;;-0.29;100.00;98894.86;134236;1298;22339;-80
2023/12/24 09:13:01;;;;;;;5.70;3.00;;;;;;;-0.28;100.00;98887.66;134253;1298;22407;-78
2023/12/24 09:16:03;;;;;;;3.20;2.90;;;;;;;-0.28;100.00;98884.88;134242;1297;22235;-79
2023/12/24 09:19:04;;;;;;;4.60;3.60;;;;;;;-0.28;100.00;98889.05;134246;1297;22374;-77
2023/12/24 09:22:04;;;;;;;;;;;;;;;-0.27;100.00;98898.64;134255;1298;22493;-77
2023/12/24 09:25:06;;;;;;;4.40;3.30;;;;;;;-0.24;100.00;98903.83;134205;1298;22357;-77
2023/12/24 09:28:06;;;;;;;3.20;2.90;;;;;;;-0.19;100.00;98904.98;134220;1297;23248;-76
2023/12/24 09:31:07;;;;;;;5.20;4.10;;;;;;;-0.14;100.00;98893.06;134235;1303;22376;-82
2023/12/24 09:34:08;;;;;;;;;;;;;;;-0.11;100.00;98879.08;134250;1298;22482;-77
2023/12/24 09:37:09;;;;;;;3.80;3.40;;;;;;;-0.09;100.00;98874.27;134242;1298;22380;-77
2023/12/24 09:40:12;;;;;;;6.20;2.90;;;;;;;-0.09;100.00;98873.53;134247;1298;23121;-75
2023/12/24 09:43:15;;;;;;;4.50;3.30;;;;;;;-0.08;100.00;98875.17;134251;1298;22359;-76
2023/12/24 09:46:19;;;;;;;5.00;4.30;;;;;;;-0.06;100.00;98866.50;134254;1291;22360;-76
2023/12/24 09:49:22;;;;;;;4.60;3.50;;;;;;;-0.03;100.00;98859.66;134251;1304;22420;-77
2023/12/24 09:52:32;;;;;;;4.70;3.20;;;;;;;-0.02;100.00;98859.57;134280;1297;22430;-77
2023/12/24 09:55:58;;;;;;;3.60;3.00;;;;;;;0.02;100.00;98851.61;134004;1301;22490;-77
2023/12/24 09:59:08;;;;;;;5.10;3.90;;;;;;;0.05;100.00;98842.10;134094;1297;22236;-76
2023/12/24 10:02:09;;;;;;;4.60;3.60;;;;;;;0.07;100.00;98838.61;134260;1298;22400;-77
2023/12/24 10:05:11;;;;;;;6.20;4.80;;;;;;;0.08;100.00;98836.65;134266;1298;22438;-77
2023/12/24 10:08:22;;;;;;;4.60;4.10;;;;;;;0.08;100.00;98826.00;134271;1298;22380;-77
2023/12/24 10:11:23;;;;;;;148.80;31.40;;;;;;;0.12;100.00;98829.71;134286;1298;22378;-77
2023/12/24 10:14:24;;;;;;;18.70;9.10;;;;;;;0.82;100.00;98826.21;134293;1298;23118;-77
2023/12/24 10:17:34;;;;;;;7.30;5.00;;;;;;;0.79;100.00;98815.33;134271;1298;22207;-77
2023/12/24 10:20:37;;;;;;;5.20;4.20;;;;;;;0.56;100.00;98808.16;134115;1298;23351;-77
2023/12/24 10:23:37;;;;;;;6.00;4.90;;;;;;;0.43;100.00;98807.48;134276;1301;22419;-77
2023/12/24 10:26:42;;;;;;;5.80;4.30;;;;;;;0.37;100.00;98811.34;134287;1298;22517;-76
2023/12/24 10:29:43;;;;;;;8.10;5.90;;;;;;;0.39;100.00;98810.46;134224;1301;22432;-76
2023/12/24 10:32:44;;;;;;;10.40;7.60;;;;;;;0.45;100.00;98805.95;134263;1298;23368;-77
2023/12/24 10:35:50;;;;;;;;;;;;;;;0.45;100.00;98803.52;134282;1298;22667;-77
2023/12/24 10:38:53;;;;;;;10.10;6.90;;;;;;;0.44;100.00;98799.95;134149;1298;22391;-77
2023/12/24 10:41:59;;;;;;;9.50;7.50;;;;;;;0.43;100.00;98794.23;134212;1304;22379;-79
2023/12/24 10:45:14;;;;;;;11.30;7.70;;;;;;;0.43;100.00;98792.70;134211;1298;22417;-76
2023/12/24 10:48:15;;;;;;;10.90;7.80;;;;;;;0.45;100.00;98788.20;134175;1304;22394;-77
2023/12/24 10:51:49;;;;;;;;;;;;;;;;;;;;;
2023/12/24 10:55:07;;;;;;;20.60;14.00;;;;;;;0.53;100.00;98781.40;134178;1298;22388;-77
2023/12/24 10:59:02;;;;;;;;;;;;;;;;;;;;;
2023/12/24 11:02:56;;;;;;;;;;;;;;;;;;;;;
2023/12/24 11:06:37;;;;;;;22.60;13.30;;;;;;;0.72;100.00;98768.30;134207;1298;22507;-76
2023/12/24 11:13:43;;;;;;;19.90;13.10;;;;;;;0.88;100.00;98762.23;134099;1298;22457;-76
2023/12/24 11:16:46;;;;;;;24.90;15.40;;;;;;;0.96;100.00;98754.46;134226;1298;22358;-77
2023/12/24 11:20:01;;;;;;;;;;;;;;;;;;;;;
2023/12/24 11:23:37;;;;;;;24.20;13.90;;;;;;;1.13;100.00;98746.40;134240;1296;23031;-76
2023/12/24 11:30:12;;;;;;;;;;;;;;;1.36;100.00;98735.95;134251;1297;22495;-76
2023/12/24 11:33:34;;;;;;;23.10;14.80;;;;;;;1.43;100.00;98730.45;134227;1294;23119;-76
2023/12/24 11:36:35;;;;;;;23.80;15.40;;;;;;;1.52;100.00;98725.25;134216;1298;22404;-76
2023/12/24 11:40:18;;;;;;;24.60;14.20;;;;;;;1.62;100.00;98720.84;134223;1298;22412;-76
2023/12/24 11:43:19;;;;;;;26.00;16.00;;;;;;;1.73;100.00;98715.42;134242;1298;22523;-76
2023/12/24 11:46:21;;;;;;;21.70;15.20;;;;;;;1.82;100.00;98710.77;134248;1298;23268;-78
2023/12/24 11:49:22;;;;;;;24.50;16.60;;;;;;;1.90;100.00;98708.73;134219;1298;22528;-76
2023/12/24 11:52:23;;;;;;;;;;;;;;;1.98;100.00;98703.48;134260;1299;22521;-76
2023/12/24 11:55:24;;;;;;;25.70;16.80;;;;;;;2.04;100.00;98696.27;134227;1297;22393;-75
2023/12/24 11:58:24;;;;;;;;;;;;;;;2.11;100.00;98697.00;134234;1298;22443;-75
2023/12/24 12:01:38;;;;;;;29.00;17.60;;;;;;;2.18;100.00;98699.45;134228;1298;23034;-75
2023/12/24 12:04:45;;;;;;;28.10;17.30;;;;;;;2.24;100.00;98697.63;134048;1298;22222;-75
2023/12/24 12:07:46;;;;;;;29.60;18.10;;;;;;;2.31;100.00;98693.88;134247;1304;22615;-74
2023/12/24 12:11:26;;;;;;;26.70;16.60;;;;;;;2.40;100.00;98689.66;134217;1301;23007;-75
2023/12/24 12:14:36;;;;;;;24.70;15.50;;;;;;;2.48;100.00;98685.15;134221;1304;23583;-75
2023/12/24 12:17:40;;;;;;;24.60;15.50;;;;;;;2.56;100.00;98677.27;134223;1289;22388;-73
2023/12/24 12:20:41;;;;;;;;;;;;;;;2.64;100.00;98684.48;134213;1304;23226;-73
2023/12/24 12:23:47;;;;;;;28.80;16.80;;;;;;;2.72;100.00;98678.90;134220;1301;23573;-73
2023/12/24 12:26:47;;;;;;;26.50;17.10;;;;;;;2.77;100.00;98680.75;134229;1298;22590;-72
2023/12/24 12:29:48;;;;;;;;;;;;;;;2.85;100.00;98677.72;134230;1301;22509;-72
2023/12/24 12:32:49;;;;;;;29.20;19.30;;;;;;;2.92;100.00;98673.75;134220;1297;22416;-71
2023/12/24 12:35:49;;;;;;;;;;;;;;;2.98;100.00;98674.02;134211;1298;24490;-75
2023/12/24 12:38:50;;;;;;;27.30;16.30;;;;;;;3.03;100.00;98676.25;134091;1304;22364;-73
2023/12/24 12:41:52;;;;;;;29.20;16.90;;;;;;;3.07;100.00;98678.30;134230;1298;23175;-72
2023/12/24 12:44:53;;;;;;;28.00;17.00;;;;;;;3.11;100.00;98679.11;134223;1298;22362;-72
2023/12/24 12:47:59;;;;;;;30.40;17.50;;;;;;;3.16;100.00;98674.66;134260;1301;22245;-72
2023/12/24 12:51:01;;;;;;;26.40;16.30;;;;;;;3.21;100.00;98672.60;134253;1298;22427;-72
2023/12/24 12:54:06;;;;;;;25.20;16.00;;;;;;;3.25;100.00;98679.50;134235;1304;22521;-72
2023/12/24 12:57:07;;;;;;;26.80;15.80;;;;;;;3.30;100.00;98679.00;134272;1298;23102;-72
2023/12/24 13:00:20;;;;;;;25.10;14.60;;;;;;;3.34;100.00;98675.72;134240;1296;22358;-72
2023/12/24 13:03:21;;;;;;;25.70;15.70;;;;;;;3.41;100.00;98670.52;134106;1301;22369;-72
2023/12/24 13:06:22;;;;;;;30.90;16.80;;;;;;;3.47;100.00;98676.00;134249;1298;23371;-72
2023/12/24 13:09:23;;;;;;;31.40;18.90;;;;;;;3.53;100.00;98676.14;134274;1298;23155;-72
2023/12/24 13:12:24;;;;;;;;;;;;;;;3.57;100.00;98672.13;134226;1298;22460;-72
2023/12/24 13:15:24;;;;;;;26.00;14.30;;;;;;;3.62;100.00;98672.96;134230;1298;22391;-72
2023/12/24 13:18:27;;;;;;;22.40;13.80;;;;;;;3.66;100.00;98670.38;134254;1298;23445;-72
2023/12/24 13:21:28;;;;;;;25.80;12.70;;;;;;;3.71;100.00;98670.11;134070;1294;22362;-73
2023/12/24 13:24:29;;;;;;;;;;;;;;;3.74;100.00;98672.88;134239;1298;23342;-73
2023/12/24 13:27:29;;;;;;;24.80;13.40;;;;;;;3.77;100.00;98676.21;134212;1301;22389;-72
2023/12/24 13:30:36;;;;;;;23.50;13.00;;;;;;;3.80;100.00;98675.39;134225;1298;23288;-72
2023/12/24 13:33:40;;;;;;;21.40;13.00;;;;;;;3.84;100.00;98675.86;134227;1298;22496;-73
2023/12/24 13:36:43;;;;;;;21.90;13.80;;;;;;;3.87;100.00;98675.38;134210;1298;23298;-72
2023/12/24 13:39:44;;;;;;;22.00;13.60;;;;;;;3.91;100.00;98683.54;134223;1298;22387;-72
2023/12/24 13:43:01;;;;;;;24.20;13.00;;;;;;;3.94;100.00;98689.89;134216;1298;22257;-72
2023/12/24 13:46:12;;;;;;;20.00;11.20;;;;;;;3.98;100.00;98685.48;134232;1298;22263;-73
2023/12/24 13:49:15;;;;;;;23.60;12.50;;;;;;;4.02;100.00;98682.61;134264;1298;22382;-72
2023/12/24 13:52:16;;;;;;;19.60;11.40;;;;;;;4.05;100.00;98679.35;134215;1298;22505;-73
2023/12/24 13:55:20;;;;;;;17.50;11.20;;;;;;;4.08;100.00;98672.86;134214;1298;23151;-73
2023/12/24 13:58:21;;;;;;;18.80;11.10;;;;;;;4.12;100.00;98667.38;134254;1301;22356;-73
2023/12/24 14:01:35;;;;;;;17.20;10.50;;;;;;;4.16;100.00;98672.55;134232;1298;22418;-73
2023/12/24 14:04:38;;;;;;;17.30;10.10;;;;;;;4.21;100.00;98667.34;134256;1304;23243;-74
2023/12/24 14:07:53;;;;;;;21.60;12.10;;;;;;;4.24;100.00;98657.01;134259;1298;22378;-73
2023/12/24 14:10:58;;;;;;;26.10;15.50;;;;;;;4.28;100.00;98663.80;134242;1298;22575;-73
2023/12/24 14:14:21;;;;;;;29.20;15.60;;;;;;;4.32;100.00;98666.17;134223;1298;22423;-73
2023/12/24 14:17:50;;;;;;;23.00;13.60;;;;;;;4.37;100.00;98667.75;134265;1298;22397;-73
2023/12/24 14:21:01;;;;;;;27.30;16.80;;;;;;;4.40;100.00;98667.23;134237;1298;22782;-74
2023/12/24 14:24:05;;;;;;;23.30;11.50;;;;;;;4.42;100.00;98668.55;134252;1304;23030;-75
2023/12/24 14:27:08;;;;;;;18.00;9.60;;;;;;;4.46;100.00;98666.38;134251;1298;23019;-74
2023/12/24 14:30:10;;;;;;;22.10;12.30;;;;;;;4.50;100.00;98672.42;134258;1298;22430;-74
2023/12/24 14:33:30;;;;;;;24.60;13.40;;;;;;;4.54;100.00;98670.31;134225;1298;22383;-73
2023/12/24 14:36:31;;;;;;;24.90;14.10;;;;;;;4.56;100.00;98663.08;134228;1304;22399;-73
2023/12/24 14:39:32;;;;;;;;;;;;;;;4.58;100.00;98653.30;134239;1298;22475;-73
2023/12/24 14:42:33;;;;;;;19.30;10.60;;;;;;;4.59;100.00;98651.74;134260;1299;22487;-73
2023/12/24 14:45:33;;;;;;;22.10;12.40;;;;;;;4.57;100.00;98651.23;134245;1299;23069;-73
2023/12/24 14:48:36;;;;;;;;;;;;;;;4.55;100.00;98649.67;134226;1298;22552;-74
2023/12/24 14:51:50;;;;;;;;;;;;;;;;;;;;;
2023/12/24 14:54:52;;;;;;;19.60;12.20;;;;;;;4.54;100.00;98654.25;134203;1304;23590;-74
2023/12/24 14:57:55;;;;;;;21.90;11.40;;;;;;;4.54;100.00;98657.70;134238;1298;23305;-74